CPX259 Details

Departure: Miami International Airport (KMIA)
Arrival: Robert L. Stanfield International Airport (CYHZ)
Route: PADUS2 PADUS PERMT AR16 ILM J174 RIFLE J62 ACK J585 DAVES TUSKY PEGGY3


Current Weather Information
KMIA 260153Z 13006KT 10SM FEW035 FEW150 BKN250 25/21 A2999 RMK AO2 SLP156 T02500206
CYHZ 260225Z 33014KT 15SM -SHSN FEW011 BKN025 00/M00 A2994 RMK SF2SC4 CVCTV CLD EMBD SLP147